sensor_id;sensor_type;location;lat;lon;timestamp;pressure;altitude;pressure_sealevel;temperature;humidity
24746;BME280;12845;52.042;6.838;2023-03-15T00:01:00;-18079.38;;;1.92;100.00
24746;BME280;12845;52.042;6.838;2023-03-15T00:03:26;-18074.81;;;1.75;100.00
24746;BME280;12845;52.042;6.838;2023-03-15T00:05:51;-18071.06;;;1.62;100.00
24746;BME280;12845;52.042;6.838;2023-03-15T00:08:17;-18068.16;;;1.51;100.00
24746;BME280;12845;52.042;6.838;2023-03-15T00:10:44;-18065.13;;;1.40;100.00
24746;BME280;12845;52.042;6.838;2023-03-15T00:13:11;-18062.22;;;1.29;100.00
24746;BME280;12845;52.042;6.838;2023-03-15T00:15:44;-18060.00;;;1.21;100.00
24746;BME280;12845;52.042;6.838;2023-03-15T00:18:10;-18060.28;;;1.22;100.00
24746;BME280;12845;52.042;6.838;2023-03-15T00:20:36;-18060.28;;;1.22;100.00
24746;BME280;12845;52.042;6.838;2023-03-15T00:23:02;-18057.78;;;1.12;100.00
24746;BME280;12845;52.042;6.838;2023-03-15T00:25:28;-18056.94;;;1.09;100.00
24746;BME280;12845;52.042;6.838;2023-03-15T00:27:53;-18058.34;;;1.15;100.00
24746;BME280;12845;52.042;6.838;2023-03-15T00:30:18;-18057.22;;;1.10;100.00
24746;BME280;12845;52.042;6.838;2023-03-15T00:32:44;-18056.66;;;1.08;100.00
24746;BME280;12845;52.042;6.838;2023-03-15T00:35:10;-18056.66;;;1.08;100.00
24746;BME280;12845;52.042;6.838;2023-03-15T00:37:37;-18057.63;;;1.12;100.00
24746;BME280;12845;52.042;6.838;2023-03-15T00:40:02;-18058.06;;;1.13;100.00
24746;BME280;12845;52.042;6.838;2023-03-15T00:42:28;-18054.88;;;1.02;100.00
24746;BME280;12845;52.042;6.838;2023-03-15T00:44:53;-18055.69;;;1.05;100.00
24746;BME280;12845;52.042;6.838;2023-03-15T00:47:22;-18055.97;;;1.06;100.00
24746;BME280;12845;52.042;6.838;2023-03-15T00:49:47;-18054.88;;;1.02;100.00
24746;BME280;12845;52.042;6.838;2023-03-15T00:52:13;-18054.88;;;1.02;100.00
24746;BME280;12845;52.042;6.838;2023-03-15T00:54:38;-18055.00;;;1.02;100.00
24746;BME280;12845;52.042;6.838;2023-03-15T00:57:03;-18054.19;;;0.99;100.00
24746;BME280;12845;52.042;6.838;2023-03-15T00:59:31;-18053.75;;;0.98;100.00
24746;BME280;12845;52.042;6.838;2023-03-15T01:02:03;-18055.00;;;1.02;100.00
24746;BME280;12845;52.042;6.838;2023-03-15T01:04:29;-18055.28;;;1.03;100.00
24746;BME280;12845;52.042;6.838;2023-03-15T01:06:55;-18055.69;;;1.05;100.00
24746;BME280;12845;52.042;6.838;2023-03-15T01:09:21;-18054.59;;;1.01;100.00
24746;BME280;12845;52.042;6.838;2023-03-15T01:11:47;-18054.19;;;0.99;100.00
24746;BME280;12845;52.042;6.838;2023-03-15T01:14:12;-18056.53;;;1.08;100.00
24746;BME280;12845;52.042;6.838;2023-03-15T01:16:37;-18057.22;;;1.10;100.00
24746;BME280;12845;52.042;6.838;2023-03-15T01:19:03;-18058.06;;;1.13;100.00
24746;BME280;12845;52.042;6.838;2023-03-15T01:21:28;-18055.00;;;1.02;100.00
24746;BME280;12845;52.042;6.838;2023-03-15T01:23:54;-18055.69;;;1.05;100.00
24746;BME280;12845;52.042;6.838;2023-03-15T01:26:20;-18056.94;;;1.09;100.00
24746;BME280;12845;52.042;6.838;2023-03-15T01:28:46;-18055.00;;;1.02;100.00
24746;BME280;12845;52.042;6.838;2023-03-15T01:31:25;-18055.84;;;1.05;100.00
24746;BME280;12845;52.042;6.838;2023-03-15T01:33:51;-18057.63;;;1.12;100.00
24746;BME280;12845;52.042;6.838;2023-03-15T01:36:17;-18058.34;;;1.15;100.00
24746;BME280;12845;52.042;6.838;2023-03-15T01:38:43;-18057.22;;;1.10;100.00
24746;BME280;12845;52.042;6.838;2023-03-15T01:41:10;-18058.75;;;1.16;100.00
24746;BME280;12845;52.042;6.838;2023-03-15T01:43:36;-18060.97;;;1.24;100.00
24746;BME280;12845;52.042;6.838;2023-03-15T01:49:10;-18062.22;;;1.29;100.00
24746;BME280;12845;52.042;6.838;2023-03-15T01:54:26;-18060.41;;;1.22;100.00
24746;BME280;12845;52.042;6.838;2023-03-15T01:57:07;-18058.34;;;1.15;100.00
24746;BME280;12845;52.042;6.838;2023-03-15T01:59:36;-18059.31;;;1.18;100.00
24746;BME280;12845;52.042;6.838;2023-03-15T02:02:04;-18060.28;;;1.22;100.00
24746;BME280;12845;52.042;6.838;2023-03-15T02:04:35;-18060.28;;;1.22;100.00
24746;BME280;12845;52.042;6.838;2023-03-15T02:07:03;-18060.69;;;1.23;100.00
24746;BME280;12845;52.042;6.838;2023-03-15T02:10:01;-18062.50;;;1.30;100.00
24746;BME280;12845;52.042;6.838;2023-03-15T02:12:31;-18063.31;;;1.33;100.00
24746;BME280;12845;52.042;6.838;2023-03-15T02:14:59;-18062.34;;;1.29;100.00
24746;BME280;12845;52.042;6.838;2023-03-15T02:17:36;-18063.59;;;1.34;100.00
24746;BME280;12845;52.042;6.838;2023-03-15T02:20:15;-18064.97;;;1.39;100.00
24746;BME280;12845;52.042;6.838;2023-03-15T02:22:53;-18065.81;;;1.42;100.00
24746;BME280;12845;52.042;6.838;2023-03-15T02:28:17;-18064.44;;;1.37;100.00
24746;BME280;12845;52.042;6.838;2023-03-15T02:30:44;-18065.66;;;1.42;100.00
24746;BME280;12845;52.042;6.838;2023-03-15T02:33:34;-18066.63;;;1.45;100.00
24746;BME280;12845;52.042;6.838;2023-03-15T02:36:28;-18066.91;;;1.46;100.00
24746;BME280;12845;52.042;6.838;2023-03-15T02:38:54;-18068.72;;;1.53;100.00
24746;BME280;12845;52.042;6.838;2023-03-15T02:43:57;-18068.84;;;1.53;100.00
24746;BME280;12845;52.042;6.838;2023-03-15T02:46:23;-18068.72;;;1.53;100.00
24746;BME280;12845;52.042;6.838;2023-03-15T02:48:49;-18069.00;;;1.54;100.00
24746;BME280;12845;52.042;6.838;2023-03-15T02:51:23;-18070.50;;;1.60;100.00
24746;BME280;12845;52.042;6.838;2023-03-15T02:53:48;-18068.84;;;1.53;100.00
24746;BME280;12845;52.042;6.838;2023-03-15T02:56:14;-18069.41;;;1.55;100.00
24746;BME280;12845;52.042;6.838;2023-03-15T02:58:40;-18069.69;;;1.56;100.00
24746;BME280;12845;52.042;6.838;2023-03-15T03:01:05;-18069.53;;;1.56;100.00
24746;BME280;12845;52.042;6.838;2023-03-15T03:03:32;-18069.41;;;1.55;100.00
24746;BME280;12845;52.042;6.838;2023-03-15T03:05:57;-18069.00;;;1.54;100.00
24746;BME280;12845;52.042;6.838;2023-03-15T03:08:23;-18069.53;;;1.56;100.00
24746;BME280;12845;52.042;6.838;2023-03-15T03:10:48;-18070.09;;;1.58;100.00
24746;BME280;12845;52.042;6.838;2023-03-15T03:13:14;-18068.44;;;1.52;100.00
24746;BME280;12845;52.042;6.838;2023-03-15T03:15:39;-18069.81;;;1.57;100.00
24746;BME280;12845;52.042;6.838;2023-03-15T03:18:05;-18070.25;;;1.58;100.00
24746;BME280;12845;52.042;6.838;2023-03-15T03:20:30;-18069.41;;;1.55;100.00
24746;BME280;12845;52.042;6.838;2023-03-15T03:22:55;-18070.78;;;1.61;100.00
24746;BME280;12845;52.042;6.838;2023-03-15T03:25:21;-18070.50;;;1.60;100.00
24746;BME280;12845;52.042;6.838;2023-03-15T03:27:50;-18068.84;;;1.53;100.00
24746;BME280;12845;52.042;6.838;2023-03-15T03:30:16;-18068.84;;;1.53;100.00
24746;BME280;12845;52.042;6.838;2023-03-15T03:32:41;-18070.25;;;1.58;100.00
24746;BME280;12845;52.042;6.838;2023-03-15T03:35:07;-18070.38;;;1.59;100.00
24746;BME280;12845;52.042;6.838;2023-03-15T03:37:33;-18070.78;;;1.61;100.00
24746;BME280;12845;52.042;6.838;2023-03-15T03:40:00;-18070.78;;;1.61;100.00
24746;BME280;12845;52.042;6.838;2023-03-15T03:42:25;-18071.75;;;1.64;100.00
24746;BME280;12845;52.042;6.838;2023-03-15T03:44:50;-18071.63;;;1.64;100.00
24746;BME280;12845;52.042;6.838;2023-03-15T03:47:18;-18071.91;;;1.65;100.00
24746;BME280;12845;52.042;6.838;2023-03-15T03:49:43;-18071.75;;;1.64;100.00
24746;BME280;12845;52.042;6.838;2023-03-15T03:52:08;-18072.44;;;1.67;100.00
24746;BME280;12845;52.042;6.838;2023-03-15T03:54:34;-18072.19;;;1.66;100.00
24746;BME280;12845;52.042;6.838;2023-03-15T03:56:59;-18072.59;;;1.67;100.00
24746;BME280;12845;52.042;6.838;2023-03-15T03:59:24;-18070.94;;;1.61;100.00
24746;BME280;12845;52.042;6.838;2023-03-15T04:01:50;-18071.06;;;1.62;100.00
24746;BME280;12845;52.042;6.838;2023-03-15T04:04:18;-18070.78;;;1.61;100.00
24746;BME280;12845;52.042;6.838;2023-03-15T04:06:44;-18070.25;;;1.58;100.00
24746;BME280;12845;52.042;6.838;2023-03-15T04:09:14;-18068.72;;;1.53;100.00
24746;BME280;12845;52.042;6.838;2023-03-15T04:11:43;-18069.13;;;1.54;100.00
24746;BME280;12845;52.042;6.838;2023-03-15T04:14:09;-18069.28;;;1.55;100.00
24746;BME280;12845;52.042;6.838;2023-03-15T04:16:35;-18068.84;;;1.53;100.00
24746;BME280;12845;52.042;6.838;2023-03-15T04:19:00;-18069.97;;;1.57;100.00
24746;BME280;12845;52.042;6.838;2023-03-15T04:21:26;-18069.53;;;1.56;100.00
24746;BME280;12845;52.042;6.838;2023-03-15T04:23:56;-18068.84;;;1.53;100.00
24746;BME280;12845;52.042;6.838;2023-03-15T04:26:22;-18068.84;;;1.53;100.00
24746;BME280;12845;52.042;6.838;2023-03-15T04:28:52;-18070.25;;;1.58;100.00
24746;BME280;12845;52.042;6.838;2023-03-15T04:31:17;-18069.13;;;1.54;100.00
24746;BME280;12845;52.042;6.838;2023-03-15T04:33:42;-18068.03;;;1.50;100.00
24746;BME280;12845;52.042;6.838;2023-03-15T04:36:08;-18068.03;;;1.50;100.00
24746;BME280;12845;52.042;6.838;2023-03-15T04:38:33;-18067.75;;;1.49;100.00
24746;BME280;12845;52.042;6.838;2023-03-15T04:40:59;-18069.69;;;1.56;100.00
24746;BME280;12845;52.042;6.838;2023-03-15T04:43:24;-18068.44;;;1.52;100.00
24746;BME280;12845;52.042;6.838;2023-03-15T04:45:50;-18068.84;;;1.53;100.00
24746;BME280;12845;52.042;6.838;2023-03-15T04:48:16;-18067.34;;;1.48;100.00
24746;BME280;12845;52.042;6.838;2023-03-15T04:50:41;-18067.75;;;1.49;100.00
24746;BME280;12845;52.042;6.838;2023-03-15T04:53:06;-18069.00;;;1.54;100.00
24746;BME280;12845;52.042;6.838;2023-03-15T04:55:31;-18068.84;;;1.53;100.00
24746;BME280;12845;52.042;6.838;2023-03-15T04:57:57;-18068.31;;;1.51;100.00
24746;BME280;12845;52.042;6.838;2023-03-15T05:00:22;-18067.47;;;1.48;100.00
24746;BME280;12845;52.042;6.838;2023-03-15T05:02:48;-18067.34;;;1.48;100.00
24746;BME280;12845;52.042;6.838;2023-03-15T05:05:20;-18067.47;;;1.48;100.00
24746;BME280;12845;52.042;6.838;2023-03-15T05:07:46;-18068.84;;;1.53;100.00
24746;BME280;12845;52.042;6.838;2023-03-15T05:10:12;-18069.69;;;1.56;100.00
24746;BME280;12845;52.042;6.838;2023-03-15T05:12:37;-18069.69;;;1.56;100.00
24746;BME280;12845;52.042;6.838;2023-03-15T05:15:03;-18069.97;;;1.57;100.00
24746;BME280;12845;52.042;6.838;2023-03-15T05:17:28;-18069.41;;;1.55;100.00
24746;BME280;12845;52.042;6.838;2023-03-15T05:19:54;-18068.56;;;1.52;100.00
24746;BME280;12845;52.042;6.838;2023-03-15T05:22:19;-18068.84;;;1.53;100.00
24746;BME280;12845;52.042;6.838;2023-03-15T05:24:49;-18068.44;;;1.52;100.00
24746;BME280;12845;52.042;6.838;2023-03-15T05:27:14;-18067.88;;;1.50;100.00
24746;BME280;12845;52.042;6.838;2023-03-15T05:29:49;-18068.31;;;1.51;100.00
24746;BME280;12845;52.042;6.838;2023-03-15T05:32:15;-18068.03;;;1.50;100.00
24746;BME280;12845;52.042;6.838;2023-03-15T05:34:40;-18068.03;;;1.50;100.00
24746;BME280;12845;52.042;6.838;2023-03-15T05:37:06;-18068.03;;;1.50;100.00
24746;BME280;12845;52.042;6.838;2023-03-15T05:39:32;-18067.88;;;1.50;100.00
24746;BME280;12845;52.042;6.838;2023-03-15T05:41:59;-18068.31;;;1.51;100.00
24746;BME280;12845;52.042;6.838;2023-03-15T05:44:24;-18068.44;;;1.52;100.00
24746;BME280;12845;52.042;6.838;2023-03-15T05:46:50;-18066.91;;;1.46;100.00
24746;BME280;12845;52.042;6.838;2023-03-15T05:49:15;-18067.75;;;1.49;100.00
24746;BME280;12845;52.042;6.838;2023-03-15T05:51:40;-18067.47;;;1.48;100.00
24746;BME280;12845;52.042;6.838;2023-03-15T05:54:06;-18066.09;;;1.43;100.00
24746;BME280;12845;52.042;6.838;2023-03-15T05:56:31;-18064.84;;;1.39;100.00
24746;BME280;12845;52.042;6.838;2023-03-15T05:58:57;-18064.69;;;1.38;100.00
24746;BME280;12845;52.042;6.838;2023-03-15T06:01:22;-18063.03;;;1.32;100.00
24746;BME280;12845;52.042;6.838;2023-03-15T06:03:55;-18064.56;;;1.38;100.00
24746;BME280;12845;52.042;6.838;2023-03-15T06:06:21;-18063.59;;;1.34;100.00
24746;BME280;12845;52.042;6.838;2023-03-15T06:08:46;-18063.47;;;1.33;100.00
24746;BME280;12845;52.042;6.838;2023-03-15T06:11:12;-18063.31;;;1.33;100.00
24746;BME280;12845;52.042;6.838;2023-03-15T06:14:12;-18063.31;;;1.33;100.00
24746;BME280;12845;52.042;6.838;2023-03-15T06:16:48;-18063.88;;;1.35;100.00
24746;BME280;12845;52.042;6.838;2023-03-15T06:19:14;-18064.28;;;1.37;100.00
24746;BME280;12845;52.042;6.838;2023-03-15T06:21:39;-18064.16;;;1.36;100.00
24746;BME280;12845;52.042;6.838;2023-03-15T06:24:18;-18062.91;;;1.31;100.00
24746;BME280;12845;52.042;6.838;2023-03-15T06:26:46;-18062.91;;;1.31;100.00
24746;BME280;12845;52.042;6.838;2023-03-15T06:29:17;-18062.75;;;1.31;100.00
24746;BME280;12845;52.042;6.838;2023-03-15T06:31:43;-18061.78;;;1.27;100.00
24746;BME280;12845;52.042;6.838;2023-03-15T06:34:11;-18062.91;;;1.31;100.00
24746;BME280;12845;52.042;6.838;2023-03-15T06:36:36;-18064.69;;;1.38;100.00
24746;BME280;12845;52.042;6.838;2023-03-15T06:39:02;-18063.19;;;1.32;100.00
24746;BME280;12845;52.042;6.838;2023-03-15T06:41:31;-18062.91;;;1.31;100.00
24746;BME280;12845;52.042;6.838;2023-03-15T06:43:57;-18063.03;;;1.32;100.00
24746;BME280;12845;52.042;6.838;2023-03-15T06:46:22;-18063.47;;;1.33;100.00
24746;BME280;12845;52.042;6.838;2023-03-15T06:48:47;-18064.16;;;1.36;100.00
24746;BME280;12845;52.042;6.838;2023-03-15T06:51:13;-18064.00;;;1.35;100.00
24746;BME280;12845;52.042;6.838;2023-03-15T06:53:41;-18064.16;;;1.36;100.00
24746;BME280;12845;52.042;6.838;2023-03-15T06:56:07;-18064.16;;;1.36;100.00
24746;BME280;12845;52.042;6.838;2023-03-15T06:58:32;-18064.69;;;1.38;100.00
24746;BME280;12845;52.042;6.838;2023-03-15T07:00:58;-18064.44;;;1.37;100.00
24746;BME280;12845;52.042;6.838;2023-03-15T07:03:23;-18064.97;;;1.39;100.00
24746;BME280;12845;52.042;6.838;2023-03-15T07:05:49;-18065.94;;;1.43;100.00
24746;BME280;12845;52.042;6.838;2023-03-15T07:08:17;-18065.38;;;1.41;100.00
24746;BME280;12845;52.042;6.838;2023-03-15T07:10:52;-18065.53;;;1.41;100.00
24746;BME280;12845;52.042;6.838;2023-03-15T07:13:20;-18067.06;;;1.47;100.00
24746;BME280;12845;52.042;6.838;2023-03-15T07:15:54;-18068.16;;;1.51;100.00
24746;BME280;12845;52.042;6.838;2023-03-15T07:18:26;-18068.03;;;1.50;100.00
24746;BME280;12845;52.042;6.838;2023-03-15T07:20:58;-18068.84;;;1.53;100.00
24746;BME280;12845;52.042;6.838;2023-03-15T07:23:33;-18070.66;;;1.60;100.00
24746;BME280;12845;52.042;6.838;2023-03-15T07:26:02;-18073.16;;;1.69;100.00
24746;BME280;12845;52.042;6.838;2023-03-15T07:28:36;-18073.00;;;1.69;100.00
24746;BME280;12845;52.042;6.838;2023-03-15T07:31:04;-18072.03;;;1.65;100.00
24746;BME280;12845;52.042;6.838;2023-03-15T07:33:31;-18072.31;;;1.66;100.00
24746;BME280;12845;52.042;6.838;2023-03-15T07:36:28;-18074.38;;;1.74;100.00
24746;BME280;12845;52.042;6.838;2023-03-15T07:41:56;-18076.59;;;1.82;100.00
24746;BME280;12845;52.042;6.838;2023-03-15T07:44:37;-18076.88;;;1.83;100.00
24746;BME280;12845;52.042;6.838;2023-03-15T07:47:02;-18078.69;;;1.90;100.00
24746;BME280;12845;52.042;6.838;2023-03-15T07:49:28;-18079.38;;;1.92;100.00
24746;BME280;12845;52.042;6.838;2023-03-15T07:51:55;-18079.94;;;1.94;100.00
24746;BME280;12845;52.042;6.838;2023-03-15T07:57:51;-18082.56;;;2.04;100.00
24746;BME280;12845;52.042;6.838;2023-03-15T08:00:25;-18085.03;;;2.13;100.00
24746;BME280;12845;52.042;6.838;2023-03-15T08:02:50;-18086.00;;;2.17;100.00
24746;BME280;12845;52.042;6.838;2023-03-15T08:05:16;-18087.94;;;2.24;100.00
24746;BME280;12845;52.042;6.838;2023-03-15T08:07:46;-18091.28;;;2.36;100.00
24746;BME280;12845;52.042;6.838;2023-03-15T08:10:12;-18091.53;;;2.37;100.00
24746;BME280;12845;52.042;6.838;2023-03-15T08:12:38;-18093.63;;;2.45;100.00
24746;BME280;12845;52.042;6.838;2023-03-15T08:15:05;-18094.59;;;2.48;100.00
24746;BME280;12845;52.042;6.838;2023-03-15T08:17:30;-18095.97;;;2.54;100.00
24746;BME280;12845;52.042;6.838;2023-03-15T08:19:56;-18097.78;;;2.60;100.00
24746;BME280;12845;52.042;6.838;2023-03-15T08:22:21;-18099.28;;;2.66;100.00
24746;BME280;12845;52.042;6.838;2023-03-15T08:24:48;-18099.44;;;2.66;100.00
24746;BME280;12845;52.042;6.838;2023-03-15T08:27:14;-18099.56;;;2.67;100.00
24746;BME280;12845;52.042;6.838;2023-03-15T08:29:40;-18099.97;;;2.68;100.00
24746;BME280;12845;52.042;6.838;2023-03-15T08:32:06;-18100.69;;;2.71;100.00
24746;BME280;12845;52.042;6.838;2023-03-15T08:34:33;-18103.44;;;2.81;100.00
24746;BME280;12845;52.042;6.838;2023-03-15T08:36:58;-18100.13;;;2.69;100.00
24746;BME280;12845;52.042;6.838;2023-03-15T08:39:24;-18101.50;;;2.74;100.00
24746;BME280;12845;52.042;6.838;2023-03-15T08:41:49;-18101.09;;;2.72;100.00
24746;BME280;12845;52.042;6.838;2023-03-15T08:44:15;-18105.38;;;2.88;100.00
24746;BME280;12845;52.042;6.838;2023-03-15T08:46:40;-18108.69;;;3.01;100.00
24746;BME280;12845;52.042;6.838;2023-03-15T08:49:06;-18107.31;;;2.96;100.00
24746;BME280;12845;52.042;6.838;2023-03-15T08:51:31;-18109.53;;;3.04;100.00
24746;BME280;12845;52.042;6.838;2023-03-15T08:53:57;-18111.47;;;3.11;100.00
24746;BME280;12845;52.042;6.838;2023-03-15T08:56:23;-18113.13;;;3.17;100.00
24746;BME280;12845;52.042;6.838;2023-03-15T08:58:48;-18114.78;;;3.23;100.00
24746;BME280;12845;52.042;6.838;2023-03-15T09:01:16;-18115.31;;;3.25;100.00
24746;BME280;12845;52.042;6.838;2023-03-15T09:03:42;-18114.22;;;3.21;100.00
24746;BME280;12845;52.042;6.838;2023-03-15T09:06:08;-18114.34;;;3.22;100.00
24746;BME280;12845;52.042;6.838;2023-03-15T09:08:34;-18118.66;;;3.37;100.00
24746;BME280;12845;52.042;6.838;2023-03-15T09:11:00;-18117.81;;;3.34;100.00
24746;BME280;12845;52.042;6.838;2023-03-15T09:13:26;-18120.16;;;3.43;100.00
24746;BME280;12845;52.042;6.838;2023-03-15T09:15:53;-18120.31;;;3.44;100.00
24746;BME280;12845;52.042;6.838;2023-03-15T09:18:20;-18123.63;;;3.56;100.00
24746;BME280;12845;52.042;6.838;2023-03-15T09:20:45;-18123.47;;;3.55;100.00
24746;BME280;12845;52.042;6.838;2023-03-15T09:23:11;-18127.22;;;3.69;100.00
24746;BME280;12845;52.042;6.838;2023-03-15T09:26:04;-18131.63;;;3.86;100.00
24746;BME280;12845;52.042;6.838;2023-03-15T09:28:59;-18136.06;;;4.02;100.00
24746;BME280;12845;52.042;6.838;2023-03-15T09:31:44;-18140.19;;;4.17;100.00
24746;BME280;12845;52.042;6.838;2023-03-15T09:34:10;-18138.53;;;4.11;100.00
24746;BME280;12845;52.042;6.838;2023-03-15T09:36:35;-18137.72;;;4.08;100.00
24746;BME280;12845;52.042;6.838;2023-03-15T09:39:01;-18143.50;;;4.29;100.00
24746;BME280;12845;52.042;6.838;2023-03-15T09:41:46;-18145.03;;;4.35;100.00
24746;BME280;12845;52.042;6.838;2023-03-15T09:47:32;-18145.88;;;4.38;100.00
24746;BME280;12845;52.042;6.838;2023-03-15T09:52:36;-18148.47;;;4.48;100.00
24746;BME280;12845;52.042;6.838;2023-03-15T09:55:19;-18150.56;;;4.56;100.00
24746;BME280;12845;52.042;6.838;2023-03-15T09:57:50;-18150.69;;;4.56;100.00
24746;BME280;12845;52.042;6.838;2023-03-15T10:00:24;-18151.66;;;4.60;100.00
24746;BME280;12845;52.042;6.838;2023-03-15T10:02:59;-18155.25;;;4.73;100.00
24746;BME280;12845;52.042;6.838;2023-03-15T10:05:42;-18158.97;;;4.87;100.00
24746;BME280;12845;52.042;6.838;2023-03-15T10:08:16;-18164.78;;;5.08;100.00
24746;BME280;12845;52.042;6.838;2023-03-15T10:11:12;-18163.25;;;5.03;100.00
24746;BME280;12845;52.042;6.838;2023-03-15T10:19:12;-18169.59;;;5.26;100.00
24746;BME280;12845;52.042;6.838;2023-03-15T10:29:42;-18174.84;;;5.46;100.00
24746;BME280;12845;52.042;6.838;2023-03-15T10:32:16;-18174.16;;;5.43;100.00
24746;BME280;12845;52.042;6.838;2023-03-15T10:34:50;-18176.22;;;5.51;100.00
24746;BME280;12845;52.042;6.838;2023-03-15T10:37:16;-18178.56;;;5.59;100.00
24746;BME280;12845;52.042;6.838;2023-03-15T10:39:47;-18180.09;;;5.65;100.00
24746;BME280;12845;52.042;6.838;2023-03-15T10:42:43;-18187.00;;;5.91;100.00
24746;BME280;12845;52.042;6.838;2023-03-15T10:45:22;-18189.47;;;6.00;100.00
24746;BME280;12845;52.042;6.838;2023-03-15T10:47:48;-18185.63;;;5.85;100.00
24746;BME280;12845;52.042;6.838;2023-03-15T10:50:25;-18182.56;;;5.74;100.00
24746;BME280;12845;52.042;6.838;2023-03-15T10:52:55;-18188.78;;;5.97;100.00
24746;BME280;12845;52.042;6.838;2023-03-15T10:55:33;-18189.47;;;6.00;100.00
24746;BME280;12845;52.042;6.838;2023-03-15T10:58:20;-18188.38;;;5.96;100.00
24746;BME280;12845;52.042;6.838;2023-03-15T11:00:57;-18188.66;;;5.97;100.00
24746;BME280;12845;52.042;6.838;2023-03-15T11:03:24;-18192.66;;;6.12;100.00
24746;BME280;12845;52.042;6.838;2023-03-15T11:05:54;-18195.41;;;6.22;100.00
24746;BME280;12845;52.042;6.838;2023-03-15T11:08:23;-18192.09;;;6.09;100.00
24746;BME280;12845;52.042;6.838;2023-03-15T11:10:58;-18196.38;;;6.25;100.00
24746;BME280;12845;52.042;6.838;2023-03-15T11:13:32;-18195.69;;;6.23;100.00
24746;BME280;12845;52.042;6.838;2023-03-15T11:18:51;-18200.66;;;6.41;100.00
24746;BME280;12845;52.042;6.838;2023-03-15T11:21:24;-18199.81;;;6.38;100.00
24746;BME280;12845;52.042;6.838;2023-03-15T11:23:53;-18196.38;;;6.25;100.00
24746;BME280;12845;52.042;6.838;2023-03-15T11:26:24;-18197.63;;;6.30;100.00
24746;BME280;12845;52.042;6.838;2023-03-15T11:28:58;-18199.97;;;6.39;100.00
24746;BME280;12845;52.042;6.838;2023-03-15T11:31:26;-18199.28;;;6.36;100.00
24746;BME280;12845;52.042;6.838;2023-03-15T11:34:05;-18202.59;;;6.48;100.00
24746;BME280;12845;52.042;6.838;2023-03-15T11:36:35;-18205.19;;;6.58;100.00
24746;BME280;12845;52.042;6.838;2023-03-15T11:39:02;-18208.66;;;6.71;100.00
24746;BME280;12845;52.042;6.838;2023-03-15T11:41:54;-18207.69;;;6.67;100.00
24746;BME280;12845;52.042;6.838;2023-03-15T11:44:33;-18208.22;;;6.69;100.00
24746;BME280;12845;52.042;6.838;2023-03-15T11:47:15;-18210.72;;;6.78;100.00
24746;BME280;12845;52.042;6.838;2023-03-15T11:49:52;-18211.13;;;6.80;100.00
24746;BME280;12845;52.042;6.838;2023-03-15T11:52:21;-18210.56;;;6.78;100.00
24746;BME280;12845;52.042;6.838;2023-03-15T11:54:47;-18213.88;;;6.90;100.00
24746;BME280;12845;52.042;6.838;2023-03-15T12:00:14;-18217.31;;;7.03;100.00
24746;BME280;12845;52.042;6.838;2023-03-15T12:08:53;-18222.44;;;7.22;100.00
24746;BME280;12845;52.042;6.838;2023-03-15T12:16:25;-18228.22;;;7.43;100.00
24746;BME280;12845;52.042;6.838;2023-03-15T12:18:52;-18234.00;;;7.65;100.00
24746;BME280;12845;52.042;6.838;2023-03-15T12:21:21;-18232.22;;;7.58;83.91
24746;BME280;12845;52.042;6.838;2023-03-15T12:23:56;-18231.78;;;7.57;100.00
24746;BME280;12845;52.042;6.838;2023-03-15T12:29:58;-18238.28;;;7.81;100.00
24746;BME280;12845;52.042;6.838;2023-03-15T12:32:46;-18244.19;;;8.03;100.00
24746;BME280;12845;52.042;6.838;2023-03-15T12:35:16;-18242.00;;;7.95;99.13
24746;BME280;12845;52.042;6.838;2023-03-15T12:37:48;-18239.91;;;7.87;100.00
24746;BME280;12845;52.042;6.838;2023-03-15T12:47:49;-18255.75;;;8.46;100.00
24746;BME280;12845;52.042;6.838;2023-03-15T12:56:10;-18260.72;;;8.64;
24746;BME280;12845;52.042;6.838;2023-03-15T12:58:41;-18262.38;;;8.70;90.83
24746;BME280;12845;52.042;6.838;2023-03-15T13:01:11;-18268.84;;;8.94;84.32
24746;BME280;12845;52.042;6.838;2023-03-15T13:03:41;-18270.34;;;9.00;99.50
24746;BME280;12845;52.042;6.838;2023-03-15T13:08:56;-18264.16;;;8.77;83.34
24746;BME280;12845;52.042;6.838;2023-03-15T13:11:42;-18267.03;;;8.88;95.49
24746;BME280;12845;52.042;6.838;2023-03-15T13:19:26;-18262.22;;;8.70;97.27
24746;BME280;12845;52.042;6.838;2023-03-15T13:25:08;-18276.66;;;9.23;97.54
24746;BME280;12845;52.042;6.838;2023-03-15T13:27:58;-18275.03;;;9.17;78.42
24746;BME280;12845;52.042;6.838;2023-03-15T13:33:13;-18282.03;;;9.43;83.06
24746;BME280;12845;52.042;6.838;2023-03-15T13:35:58;-18286.31;;;9.59;78.75
24746;BME280;12845;52.042;6.838;2023-03-15T13:38:51;-18291.13;;;9.77;90.51
24746;BME280;12845;52.042;6.838;2023-03-15T13:41:18;-18284.38;;;9.52;79.97
24746;BME280;12845;52.042;6.838;2023-03-15T13:43:44;-18290.00;;;9.73;100.00
24746;BME280;12845;52.042;6.838;2023-03-15T13:46:10;-18290.44;;;9.75;94.24
24746;BME280;12845;52.042;6.838;2023-03-15T13:48:42;-18291.94;;;9.80;97.15
24746;BME280;12845;52.042;6.838;2023-03-15T13:51:28;-18297.16;;;10.00;90.75
24746;BME280;12845;52.042;6.838;2023-03-15T13:54:01;-18293.44;;;9.86;77.91
24746;BME280;12845;52.042;6.838;2023-03-15T13:56:40;-18292.91;;;9.84;65.06
24746;BME280;12845;52.042;6.838;2023-03-15T13:59:09;-18296.88;;;9.99;67.45
24746;BME280;12845;52.042;6.838;2023-03-15T14:01:38;-18295.09;;;9.92;88.21
24746;BME280;12845;52.042;6.838;2023-03-15T14:04:15;-18292.06;;;9.81;65.55
24746;BME280;12845;52.042;6.838;2023-03-15T14:06:41;-18300.31;;;10.11;100.00
24746;BME280;12845;52.042;6.838;2023-03-15T14:09:17;-18307.75;;;10.39;98.19
24746;BME280;12845;52.042;6.838;2023-03-15T14:11:43;-18302.66;;;10.20;67.98
24746;BME280;12845;52.042;6.838;2023-03-15T14:14:23;-18302.25;;;10.19;77.72
24746;BME280;12845;52.042;6.838;2023-03-15T14:16:50;-18303.06;;;10.22;81.18
24746;BME280;12845;52.042;6.838;2023-03-15T14:19:24;-18297.56;;;10.01;78.00
24746;BME280;12845;52.042;6.838;2023-03-15T14:21:58;-18305.69;;;10.31;94.15
24746;BME280;12845;52.042;6.838;2023-03-15T14:24:38;-18303.06;;;10.22;67.25
24746;BME280;12845;52.042;6.838;2023-03-15T14:27:07;-18306.25;;;10.33;76.03